sensor_id;sensor_type;location;lat;lon;timestamp;P1;durP1;ratioP1;P2;durP2;ratioP2
81952;SDS011;71454;55.476;14.282;2023-07-31T00:00:01;10.18;;;2.13;;
81952;SDS011;71454;55.476;14.282;2023-07-31T00:02:27;8.30;;;1.85;;
81952;SDS011;71454;55.476;14.282;2023-07-31T00:04:52;10.73;;;2.22;;
81952;SDS011;71454;55.476;14.282;2023-07-31T00:07:18;8.52;;;2.15;;
81952;SDS011;71454;55.476;14.282;2023-07-31T00:09:43;10.82;;;2.40;;
81952;SDS011;71454;55.476;14.282;2023-07-31T00:12:08;8.68;;;2.17;;
81952;SDS011;71454;55.476;14.282;2023-07-31T00:14:34;9.50;;;2.00;;
81952;SDS011;71454;55.476;14.282;2023-07-31T00:16:59;11.93;;;2.30;;
81952;SDS011;71454;55.476;14.282;2023-07-31T00:19:25;8.35;;;2.25;;
81952;SDS011;71454;55.476;14.282;2023-07-31T00:21:50;11.80;;;2.22;;
81952;SDS011;71454;55.476;14.282;2023-07-31T00:24:15;12.98;;;2.22;;
81952;SDS011;71454;55.476;14.282;2023-07-31T00:26:41;10.68;;;2.35;;
81952;SDS011;71454;55.476;14.282;2023-07-31T00:29:06;7.82;;;1.92;;
81952;SDS011;71454;55.476;14.282;2023-07-31T00:31:32;6.50;;;2.30;;
81952;SDS011;71454;55.476;14.282;2023-07-31T00:33:57;9.65;;;2.10;;
81952;SDS011;71454;55.476;14.282;2023-07-31T00:36:22;9.38;;;1.58;;
81952;SDS011;71454;55.476;14.282;2023-07-31T00:38:48;7.72;;;1.65;;
81952;SDS011;71454;55.476;14.282;2023-07-31T00:41:14;7.82;;;1.95;;
81952;SDS011;71454;55.476;14.282;2023-07-31T00:43:39;11.15;;;2.60;;
81952;SDS011;71454;55.476;14.282;2023-07-31T00:46:05;9.80;;;2.13;;
81952;SDS011;71454;55.476;14.282;2023-07-31T00:48:30;9.57;;;2.65;;
81952;SDS011;71454;55.476;14.282;2023-07-31T00:50:56;9.23;;;2.13;;
81952;SDS011;71454;55.476;14.282;2023-07-31T00:53:22;8.70;;;1.80;;
81952;SDS011;71454;55.476;14.282;2023-07-31T00:55:47;9.00;;;1.90;;
81952;SDS011;71454;55.476;14.282;2023-07-31T00:58:13;13.95;;;2.03;;
81952;SDS011;71454;55.476;14.282;2023-07-31T01:00:38;9.85;;;1.88;;
81952;SDS011;71454;55.476;14.282;2023-07-31T01:03:04;6.82;;;1.60;;
81952;SDS011;71454;55.476;14.282;2023-07-31T01:05:33;11.52;;;2.10;;
81952;SDS011;71454;55.476;14.282;2023-07-31T01:08:17;8.38;;;1.75;;
81952;SDS011;71454;55.476;14.282;2023-07-31T01:10:50;12.20;;;2.88;;
81952;SDS011;71454;55.476;14.282;2023-07-31T01:13:17;9.07;;;2.00;;
81952;SDS011;71454;55.476;14.282;2023-07-31T01:15:43;7.60;;;1.80;;
81952;SDS011;71454;55.476;14.282;2023-07-31T01:18:08;8.23;;;2.08;;
81952;SDS011;71454;55.476;14.282;2023-07-31T01:20:34;9.15;;;1.88;;
81952;SDS011;71454;55.476;14.282;2023-07-31T01:23:08;7.25;;;2.10;;
81952;SDS011;71454;55.476;14.282;2023-07-31T01:31:03;10.00;;;2.10;;
81952;SDS011;71454;55.476;14.282;2023-07-31T01:33:32;10.20;;;1.77;;
81952;SDS011;71454;55.476;14.282;2023-07-31T01:35:58;11.23;;;2.20;;
81952;SDS011;71454;55.476;14.282;2023-07-31T01:38:24;12.05;;;2.47;;
81952;SDS011;71454;55.476;14.282;2023-07-31T01:40:52;12.48;;;1.83;;
81952;SDS011;71454;55.476;14.282;2023-07-31T01:43:18;10.45;;;1.90;;
81952;SDS011;71454;55.476;14.282;2023-07-31T01:45:44;7.20;;;1.70;;
81952;SDS011;71454;55.476;14.282;2023-07-31T01:48:09;9.27;;;1.90;;
81952;SDS011;71454;55.476;14.282;2023-07-31T01:50:34;10.80;;;2.47;;
81952;SDS011;71454;55.476;14.282;2023-07-31T01:53:00;9.65;;;1.60;;
81952;SDS011;71454;55.476;14.282;2023-07-31T01:55:25;7.88;;;1.50;;
81952;SDS011;71454;55.476;14.282;2023-07-31T01:57:51;10.43;;;1.95;;
81952;SDS011;71454;55.476;14.282;2023-07-31T02:00:17;9.70;;;1.73;;
81952;SDS011;71454;55.476;14.282;2023-07-31T02:02:43;9.23;;;1.70;;
81952;SDS011;71454;55.476;14.282;2023-07-31T02:05:08;8.40;;;1.65;;
81952;SDS011;71454;55.476;14.282;2023-07-31T02:07:34;8.48;;;1.83;;
81952;SDS011;71454;55.476;14.282;2023-07-31T02:09:59;5.40;;;1.33;;
81952;SDS011;71454;55.476;14.282;2023-07-31T02:12:24;7.15;;;1.48;;
81952;SDS011;71454;55.476;14.282;2023-07-31T02:14:50;8.10;;;1.45;;
81952;SDS011;71454;55.476;14.282;2023-07-31T02:17:15;7.13;;;1.25;;
81952;SDS011;71454;55.476;14.282;2023-07-31T02:19:41;8.13;;;1.63;;
81952;SDS011;71454;55.476;14.282;2023-07-31T02:22:06;7.93;;;1.50;;
81952;SDS011;71454;55.476;14.282;2023-07-31T02:24:31;7.95;;;1.33;;
81952;SDS011;71454;55.476;14.282;2023-07-31T02:26:57;8.50;;;1.50;;
81952;SDS011;71454;55.476;14.282;2023-07-31T02:29:22;9.02;;;1.85;;
81952;SDS011;71454;55.476;14.282;2023-07-31T02:31:47;10.35;;;1.88;;
81952;SDS011;71454;55.476;14.282;2023-07-31T02:34:13;8.40;;;1.63;;
81952;SDS011;71454;55.476;14.282;2023-07-31T02:36:38;7.88;;;2.05;;
81952;SDS011;71454;55.476;14.282;2023-07-31T02:39:03;9.13;;;1.73;;
81952;SDS011;71454;55.476;14.282;2023-07-31T02:41:29;8.85;;;2.00;;
81952;SDS011;71454;55.476;14.282;2023-07-31T02:43:55;7.43;;;1.70;;
81952;SDS011;71454;55.476;14.282;2023-07-31T02:46:21;9.05;;;1.52;;
81952;SDS011;71454;55.476;14.282;2023-07-31T02:48:49;8.05;;;1.73;;
81952;SDS011;71454;55.476;14.282;2023-07-31T02:51:14;8.10;;;1.40;;
81952;SDS011;71454;55.476;14.282;2023-07-31T02:53:40;6.95;;;1.60;;
81952;SDS011;71454;55.476;14.282;2023-07-31T02:56:05;8.40;;;1.75;;
81952;SDS011;71454;55.476;14.282;2023-07-31T02:58:31;7.57;;;1.60;;
81952;SDS011;71454;55.476;14.282;2023-07-31T03:00:57;10.23;;;1.70;;
81952;SDS011;71454;55.476;14.282;2023-07-31T03:03:23;9.00;;;2.05;;
81952;SDS011;71454;55.476;14.282;2023-07-31T03:05:49;8.55;;;1.73;;
81952;SDS011;71454;55.476;14.282;2023-07-31T03:08:14;9.85;;;1.67;;
81952;SDS011;71454;55.476;14.282;2023-07-31T03:10:40;8.80;;;1.95;;
81952;SDS011;71454;55.476;14.282;2023-07-31T03:13:05;11.45;;;1.70;;
81952;SDS011;71454;55.476;14.282;2023-07-31T03:15:31;8.43;;;1.80;;
81952;SDS011;71454;55.476;14.282;2023-07-31T03:17:56;9.50;;;1.80;;
81952;SDS011;71454;55.476;14.282;2023-07-31T03:20:22;8.60;;;1.52;;
81952;SDS011;71454;55.476;14.282;2023-07-31T03:22:47;7.18;;;1.50;;
81952;SDS011;71454;55.476;14.282;2023-07-31T03:25:13;9.45;;;2.30;;
81952;SDS011;71454;55.476;14.282;2023-07-31T03:27:39;8.88;;;1.98;;
81952;SDS011;71454;55.476;14.282;2023-07-31T03:30:04;10.75;;;1.70;;
81952;SDS011;71454;55.476;14.282;2023-07-31T03:32:30;7.75;;;1.80;;
81952;SDS011;71454;55.476;14.282;2023-07-31T03:34:56;12.68;;;2.88;;
81952;SDS011;71454;55.476;14.282;2023-07-31T03:37:22;12.98;;;2.40;;
81952;SDS011;71454;55.476;14.282;2023-07-31T03:39:47;11.20;;;1.80;;
81952;SDS011;71454;55.476;14.282;2023-07-31T03:42:12;11.52;;;2.60;;
81952;SDS011;71454;55.476;14.282;2023-07-31T03:44:38;9.32;;;2.00;;
81952;SDS011;71454;55.476;14.282;2023-07-31T03:47:03;6.68;;;1.80;;
81952;SDS011;71454;55.476;14.282;2023-07-31T03:49:29;10.40;;;1.90;;
81952;SDS011;71454;55.476;14.282;2023-07-31T03:51:55;10.52;;;2.35;;
81952;SDS011;71454;55.476;14.282;2023-07-31T03:54:20;12.48;;;1.63;;
81952;SDS011;71454;55.476;14.282;2023-07-31T03:56:45;16.13;;;2.72;;
81952;SDS011;71454;55.476;14.282;2023-07-31T03:59:11;8.07;;;1.63;;
81952;SDS011;71454;55.476;14.282;2023-07-31T04:01:36;12.90;;;2.00;;
81952;SDS011;71454;55.476;14.282;2023-07-31T04:04:02;9.68;;;1.80;;
81952;SDS011;71454;55.476;14.282;2023-07-31T04:06:27;8.73;;;1.55;;
81952;SDS011;71454;55.476;14.282;2023-07-31T04:08:52;9.18;;;1.73;;
81952;SDS011;71454;55.476;14.282;2023-07-31T04:11:18;15.18;;;1.80;;
81952;SDS011;71454;55.476;14.282;2023-07-31T04:13:46;9.77;;;1.75;;
81952;SDS011;71454;55.476;14.282;2023-07-31T04:16:12;8.07;;;1.88;;
81952;SDS011;71454;55.476;14.282;2023-07-31T04:18:37;8.85;;;1.90;;
81952;SDS011;71454;55.476;14.282;2023-07-31T04:21:03;7.88;;;1.63;;
81952;SDS011;71454;55.476;14.282;2023-07-31T04:23:28;8.27;;;1.95;;
81952;SDS011;71454;55.476;14.282;2023-07-31T04:25:53;9.40;;;1.67;;
81952;SDS011;71454;55.476;14.282;2023-07-31T04:28:19;6.68;;;1.50;;
81952;SDS011;71454;55.476;14.282;2023-07-31T04:30:44;7.72;;;1.90;;
81952;SDS011;71454;55.476;14.282;2023-07-31T04:33:10;10.10;;;2.10;;
81952;SDS011;71454;55.476;14.282;2023-07-31T04:35:35;9.32;;;1.80;;
81952;SDS011;71454;55.476;14.282;2023-07-31T04:38:01;7.15;;;1.73;;
81952;SDS011;71454;55.476;14.282;2023-07-31T04:40:26;10.35;;;1.80;;
81952;SDS011;71454;55.476;14.282;2023-07-31T04:42:52;11.05;;;1.85;;
81952;SDS011;71454;55.476;14.282;2023-07-31T04:45:17;8.63;;;1.77;;
81952;SDS011;71454;55.476;14.282;2023-07-31T04:47:42;9.45;;;2.05;;
81952;SDS011;71454;55.476;14.282;2023-07-31T04:50:10;8.52;;;2.00;;
81952;SDS011;71454;55.476;14.282;2023-07-31T04:52:36;10.75;;;1.95;;
81952;SDS011;71454;55.476;14.282;2023-07-31T04:55:01;9.65;;;1.88;;
81952;SDS011;71454;55.476;14.282;2023-07-31T04:57:27;9.18;;;1.73;;
81952;SDS011;71454;55.476;14.282;2023-07-31T04:59:53;7.63;;;1.90;;
81952;SDS011;71454;55.476;14.282;2023-07-31T05:02:18;10.40;;;1.85;;
81952;SDS011;71454;55.476;14.282;2023-07-31T05:04:43;9.30;;;2.22;;
81952;SDS011;71454;55.476;14.282;2023-07-31T05:07:09;19.38;;;2.10;;
81952;SDS011;71454;55.476;14.282;2023-07-31T05:09:34;10.60;;;2.33;;
81952;SDS011;71454;55.476;14.282;2023-07-31T05:12:00;9.60;;;2.70;;
81952;SDS011;71454;55.476;14.282;2023-07-31T05:14:25;8.73;;;1.88;;
81952;SDS011;71454;55.476;14.282;2023-07-31T05:16:51;9.90;;;1.90;;
81952;SDS011;71454;55.476;14.282;2023-07-31T05:19:17;9.38;;;1.88;;
81952;SDS011;71454;55.476;14.282;2023-07-31T05:21:42;10.00;;;2.20;;
81952;SDS011;71454;55.476;14.282;2023-07-31T05:24:07;9.02;;;1.70;;
81952;SDS011;71454;55.476;14.282;2023-07-31T05:26:33;12.10;;;2.13;;
81952;SDS011;71454;55.476;14.282;2023-07-31T05:28:58;12.45;;;2.58;;
81952;SDS011;71454;55.476;14.282;2023-07-31T05:31:24;9.32;;;2.13;;
81952;SDS011;71454;55.476;14.282;2023-07-31T05:33:49;11.02;;;2.60;;
81952;SDS011;71454;55.476;14.282;2023-07-31T05:36:15;10.10;;;1.90;;
81952;SDS011;71454;55.476;14.282;2023-07-31T05:38:41;9.35;;;1.92;;
81952;SDS011;71454;55.476;14.282;2023-07-31T05:41:09;9.90;;;2.42;;
81952;SDS011;71454;55.476;14.282;2023-07-31T05:43:34;8.40;;;1.48;;
81952;SDS011;71454;55.476;14.282;2023-07-31T05:46:00;9.20;;;1.52;;
81952;SDS011;71454;55.476;14.282;2023-07-31T05:48:26;6.55;;;1.20;;
81952;SDS011;71454;55.476;14.282;2023-07-31T05:50:51;8.85;;;1.42;;
81952;SDS011;71454;55.476;14.282;2023-07-31T05:53:17;6.68;;;1.27;;
81952;SDS011;71454;55.476;14.282;2023-07-31T05:55:42;6.05;;;1.50;;
81952;SDS011;71454;55.476;14.282;2023-07-31T05:58:08;8.52;;;1.50;;
81952;SDS011;71454;55.476;14.282;2023-07-31T06:00:33;5.63;;;1.20;;
81952;SDS011;71454;55.476;14.282;2023-07-31T06:02:58;7.90;;;1.25;;
81952;SDS011;71454;55.476;14.282;2023-07-31T06:05:24;5.22;;;1.38;;
81952;SDS011;71454;55.476;14.282;2023-07-31T06:07:49;5.25;;;1.00;;
81952;SDS011;71454;55.476;14.282;2023-07-31T06:10:15;4.97;;;1.00;;
81952;SDS011;71454;55.476;14.282;2023-07-31T06:12:40;7.32;;;1.10;;
81952;SDS011;71454;55.476;14.282;2023-07-31T06:15:06;6.00;;;1.08;;
81952;SDS011;71454;55.476;14.282;2023-07-31T06:17:31;6.30;;;1.20;;
81952;SDS011;71454;55.476;14.282;2023-07-31T06:19:57;6.05;;;1.00;;
81952;SDS011;71454;55.476;14.282;2023-07-31T06:22:22;5.28;;;0.93;;
81952;SDS011;71454;55.476;14.282;2023-07-31T06:24:48;5.90;;;1.13;;
81952;SDS011;71454;55.476;14.282;2023-07-31T06:27:13;8.00;;;1.00;;
81952;SDS011;71454;55.476;14.282;2023-07-31T06:29:38;5.43;;;1.00;;
81952;SDS011;71454;55.476;14.282;2023-07-31T06:32:04;10.18;;;1.27;;
81952;SDS011;71454;55.476;14.282;2023-07-31T06:34:29;6.13;;;1.40;;
81952;SDS011;71454;55.476;14.282;2023-07-31T06:36:55;6.28;;;1.25;;
81952;SDS011;71454;55.476;14.282;2023-07-31T06:39:24;3.75;;;1.08;;
81952;SDS011;71454;55.476;14.282;2023-07-31T06:41:50;5.65;;;1.60;;
81952;SDS011;71454;55.476;14.282;2023-07-31T06:44:15;6.65;;;1.27;;
81952;SDS011;71454;55.476;14.282;2023-07-31T06:46:42;7.47;;;1.42;;
81952;SDS011;71454;55.476;14.282;2023-07-31T06:49:07;7.07;;;1.60;;
81952;SDS011;71454;55.476;14.282;2023-07-31T06:51:33;7.97;;;2.67;;
81952;SDS011;71454;55.476;14.282;2023-07-31T06:53:58;8.55;;;1.90;;
81952;SDS011;71454;55.476;14.282;2023-07-31T06:56:24;6.22;;;1.33;;
81952;SDS011;71454;55.476;14.282;2023-07-31T06:58:49;6.10;;;1.60;;
81952;SDS011;71454;55.476;14.282;2023-07-31T07:01:15;8.43;;;2.10;;
81952;SDS011;71454;55.476;14.282;2023-07-31T07:03:40;9.20;;;2.20;;
81952;SDS011;71454;55.476;14.282;2023-07-31T07:06:05;6.60;;;1.58;;
81952;SDS011;71454;55.476;14.282;2023-07-31T07:08:31;9.00;;;1.83;;
81952;SDS011;71454;55.476;14.282;2023-07-31T07:10:56;6.82;;;1.50;;
81952;SDS011;71454;55.476;14.282;2023-07-31T07:13:22;7.72;;;1.60;;
81952;SDS011;71454;55.476;14.282;2023-07-31T07:15:48;9.45;;;1.63;;
81952;SDS011;71454;55.476;14.282;2023-07-31T07:18:14;7.55;;;1.48;;
81952;SDS011;71454;55.476;14.282;2023-07-31T07:20:39;12.13;;;2.15;;
81952;SDS011;71454;55.476;14.282;2023-07-31T07:23:05;8.10;;;1.52;;
81952;SDS011;71454;55.476;14.282;2023-07-31T07:25:35;5.40;;;1.30;;
81952;SDS011;71454;55.476;14.282;2023-07-31T07:28:02;7.60;;;1.23;;
81952;SDS011;71454;55.476;14.282;2023-07-31T07:30:28;6.57;;;1.75;;
81952;SDS011;71454;55.476;14.282;2023-07-31T07:32:53;6.57;;;1.60;;
81952;SDS011;71454;55.476;14.282;2023-07-31T07:35:19;6.03;;;1.40;;
81952;SDS011;71454;55.476;14.282;2023-07-31T07:37:44;7.68;;;1.60;;
81952;SDS011;71454;55.476;14.282;2023-07-31T07:40:09;9.60;;;1.75;;
81952;SDS011;71454;55.476;14.282;2023-07-31T07:42:35;8.98;;;1.80;;
81952;SDS011;71454;55.476;14.282;2023-07-31T07:45:00;6.40;;;1.52;;
81952;SDS011;71454;55.476;14.282;2023-07-31T07:47:26;7.35;;;1.55;;
81952;SDS011;71454;55.476;14.282;2023-07-31T07:49:51;9.35;;;1.75;;
81952;SDS011;71454;55.476;14.282;2023-07-31T07:52:17;7.07;;;1.42;;
81952;SDS011;71454;55.476;14.282;2023-07-31T07:54:42;5.35;;;1.42;;
81952;SDS011;71454;55.476;14.282;2023-07-31T07:57:07;6.32;;;1.42;;
81952;SDS011;71454;55.476;14.282;2023-07-31T07:59:33;5.63;;;1.40;;
81952;SDS011;71454;55.476;14.282;2023-07-31T08:01:58;6.10;;;1.75;;
81952;SDS011;71454;55.476;14.282;2023-07-31T08:04:26;5.75;;;1.63;;
81952;SDS011;71454;55.476;14.282;2023-07-31T08:06:52;8.07;;;1.55;;
81952;SDS011;71454;55.476;14.282;2023-07-31T08:09:17;7.85;;;1.70;;
81952;SDS011;71454;55.476;14.282;2023-07-31T08:11:42;6.70;;;1.98;;
81952;SDS011;71454;55.476;14.282;2023-07-31T08:14:08;7.15;;;1.45;;
81952;SDS011;71454;55.476;14.282;2023-07-31T08:16:33;6.03;;;1.60;;
81952;SDS011;71454;55.476;14.282;2023-07-31T08:18:58;4.55;;;1.35;;
81952;SDS011;71454;55.476;14.282;2023-07-31T08:21:24;6.25;;;1.38;;
81952;SDS011;71454;55.476;14.282;2023-07-31T08:23:49;5.68;;;1.40;;
81952;SDS011;71454;55.476;14.282;2023-07-31T08:26:15;6.75;;;1.45;;
81952;SDS011;71454;55.476;14.282;2023-07-31T08:28:41;8.43;;;1.52;;
81952;SDS011;71454;55.476;14.282;2023-07-31T08:31:07;7.47;;;1.50;;
81952;SDS011;71454;55.476;14.282;2023-07-31T08:33:32;3.97;;;1.30;;
81952;SDS011;71454;55.476;14.282;2023-07-31T08:35:57;5.22;;;1.40;;
81952;SDS011;71454;55.476;14.282;2023-07-31T08:38:24;9.02;;;1.52;;
81952;SDS011;71454;55.476;14.282;2023-07-31T08:40:51;6.82;;;1.10;;
81952;SDS011;71454;55.476;14.282;2023-07-31T08:43:16;5.82;;;1.30;;
81952;SDS011;71454;55.476;14.282;2023-07-31T08:45:42;5.50;;;1.58;;
81952;SDS011;71454;55.476;14.282;2023-07-31T08:48:07;9.73;;;1.73;;
81952;SDS011;71454;55.476;14.282;2023-07-31T08:50:33;9.05;;;1.77;;
81952;SDS011;71454;55.476;14.282;2023-07-31T08:52:58;10.82;;;2.55;;
81952;SDS011;71454;55.476;14.282;2023-07-31T08:55:24;10.45;;;3.03;;
81952;SDS011;71454;55.476;14.282;2023-07-31T08:57:52;9.32;;;2.50;;
81952;SDS011;71454;55.476;14.282;2023-07-31T09:00:19;10.30;;;2.30;;
81952;SDS011;71454;55.476;14.282;2023-07-31T09:03:02;8.38;;;1.73;;
81952;SDS011;71454;55.476;14.282;2023-07-31T09:05:29;13.65;;;2.38;;
81952;SDS011;71454;55.476;14.282;2023-07-31T09:07:56;7.90;;;2.00;;
81952;SDS011;71454;55.476;14.282;2023-07-31T09:10:22;8.00;;;2.65;;
81952;SDS011;71454;55.476;14.282;2023-07-31T09:12:48;10.00;;;1.95;;
81952;SDS011;71454;55.476;14.282;2023-07-31T09:15:14;8.88;;;2.25;;
81952;SDS011;71454;55.476;14.282;2023-07-31T09:17:40;7.93;;;2.28;;
81952;SDS011;71454;55.476;14.282;2023-07-31T09:22:40;9.68;;;2.40;;
81952;SDS011;71454;55.476;14.282;2023-07-31T09:25:19;9.07;;;2.33;;
81952;SDS011;71454;55.476;14.282;2023-07-31T09:27:46;5.88;;;2.30;;
81952;SDS011;71454;55.476;14.282;2023-07-31T09:30:12;8.95;;;2.50;;
81952;SDS011;71454;55.476;14.282;2023-07-31T09:32:38;12.20;;;2.33;;
81952;SDS011;71454;55.476;14.282;2023-07-31T09:35:13;10.20;;;2.20;;
81952;SDS011;71454;55.476;14.282;2023-07-31T09:37:55;8.55;;;2.20;;
81952;SDS011;71454;55.476;14.282;2023-07-31T09:40:29;9.30;;;2.10;;
81952;SDS011;71454;55.476;14.282;2023-07-31T09:43:01;6.72;;;2.17;;
81952;SDS011;71454;55.476;14.282;2023-07-31T09:45:28;11.93;;;2.40;;
81952;SDS011;71454;55.476;14.282;2023-07-31T09:47:55;8.48;;;2.20;;
81952;SDS011;71454;55.476;14.282;2023-07-31T09:50:22;7.78;;;2.17;;
81952;SDS011;71454;55.476;14.282;2023-07-31T09:52:48;9.70;;;2.67;;
81952;SDS011;71454;55.476;14.282;2023-07-31T09:55:14;10.48;;;2.53;;
81952;SDS011;71454;55.476;14.282;2023-07-31T09:57:40;7.57;;;2.67;;
81952;SDS011;71454;55.476;14.282;2023-07-31T10:00:11;7.85;;;2.83;;
81952;SDS011;71454;55.476;14.282;2023-07-31T10:02:37;10.68;;;2.60;;
81952;SDS011;71454;55.476;14.282;2023-07-31T10:05:03;8.23;;;2.20;;
81952;SDS011;71454;55.476;14.282;2023-07-31T10:07:30;7.68;;;2.47;;
81952;SDS011;71454;55.476;14.282;2023-07-31T10:10:00;6.43;;;2.00;;
81952;SDS011;71454;55.476;14.282;2023-07-31T10:12:26;9.45;;;2.80;;
81952;SDS011;71454;55.476;14.282;2023-07-31T10:14:55;7.28;;;2.38;;
81952;SDS011;71454;55.476;14.282;2023-07-31T10:17:24;9.65;;;2.47;;
81952;SDS011;71454;55.476;14.282;2023-07-31T10:19:50;7.53;;;2.10;;
81952;SDS011;71454;55.476;14.282;2023-07-31T10:22:16;9.07;;;2.28;;
81952;SDS011;71454;55.476;14.282;2023-07-31T10:24:43;10.73;;;2.33;;
81952;SDS011;71454;55.476;14.282;2023-07-31T10:27:10;12.20;;;2.58;;
81952;SDS011;71454;55.476;14.282;2023-07-31T10:29:39;7.45;;;1.98;;
81952;SDS011;71454;55.476;14.282;2023-07-31T10:32:06;9.48;;;3.17;;
81952;SDS011;71454;55.476;14.282;2023-07-31T10:34:35;8.25;;;2.58;;
81952;SDS011;71454;55.476;14.282;2023-07-31T10:42:28;11.77;;;3.03;;
81952;SDS011;71454;55.476;14.282;2023-07-31T10:44:58;11.00;;;3.15;;
81952;SDS011;71454;55.476;14.282;2023-07-31T10:47:25;8.95;;;2.55;;
81952;SDS011;71454;55.476;14.282;2023-07-31T10:49:50;8.25;;;2.92;;
81952;SDS011;71454;55.476;14.282;2023-07-31T10:52:19;7.40;;;2.10;;
81952;SDS011;71454;55.476;14.282;2023-07-31T10:54:49;8.10;;;2.40;;
81952;SDS011;71454;55.476;14.282;2023-07-31T10:57:19;11.85;;;3.10;;
81952;SDS011;71454;55.476;14.282;2023-07-31T11:02:23;8.80;;;2.67;;
81952;SDS011;71454;55.476;14.282;2023-07-31T11:07:48;8.40;;;2.38;;
81952;SDS011;71454;55.476;14.282;2023-07-31T11:10:19;9.30;;;2.70;;
81952;SDS011;71454;55.476;14.282;2023-07-31T11:12:47;7.43;;;2.30;;
81952;SDS011;71454;55.476;14.282;2023-07-31T11:15:14;9.65;;;2.20;;
81952;SDS011;71454;55.476;14.282;2023-07-31T11:17:39;9.35;;;2.63;;
81952;SDS011;71454;55.476;14.282;2023-07-31T11:20:05;9.35;;;2.50;;
81952;SDS011;71454;55.476;14.282;2023-07-31T11:22:32;8.05;;;2.60;;
81952;SDS011;71454;55.476;14.282;2023-07-31T11:24:59;10.05;;;2.60;;
81952;SDS011;71454;55.476;14.282;2023-07-31T11:27:27;6.63;;;2.58;;
81952;SDS011;71454;55.476;14.282;2023-07-31T11:29:53;7.82;;;2.97;;
81952;SDS011;71454;55.476;14.282;2023-07-31T11:32:20;8.02;;;2.78;;
81952;SDS011;71454;55.476;14.282;2023-07-31T11:34:55;6.65;;;2.60;;
81952;SDS011;71454;55.476;14.282;2023-07-31T11:37:20;7.97;;;2.72;;
81952;SDS011;71454;55.476;14.282;2023-07-31T11:39:59;10.40;;;3.22;;
81952;SDS011;71454;55.476;14.282;2023-07-31T11:42:25;14.35;;;4.07;;
81952;SDS011;71454;55.476;14.282;2023-07-31T11:44:50;17.65;;;4.47;;
81952;SDS011;71454;55.476;14.282;2023-07-31T11:47:16;11.35;;;3.03;;
81952;SDS011;71454;55.476;14.282;2023-07-31T11:49:42;12.18;;;3.75;;
81952;SDS011;71454;55.476;14.282;2023-07-31T11:52:08;11.57;;;4.53;;
81952;SDS011;71454;55.476;14.282;2023-07-31T11:54:34;12.18;;;5.32;;
81952;SDS011;71454;55.476;14.282;2023-07-31T11:57:00;10.40;;;3.92;;
81952;SDS011;71454;55.476;14.282;2023-07-31T11:59:26;9.85;;;4.20;;
81952;SDS011;71454;55.476;14.282;2023-07-31T12:01:51;11.38;;;4.00;;
81952;SDS011;71454;55.476;14.282;2023-07-31T12:04:18;9.10;;;4.10;;
81952;SDS011;71454;55.476;14.282;2023-07-31T12:06:44;10.68;;;4.00;;
81952;SDS011;71454;55.476;14.282;2023-07-31T12:09:10;9.50;;;3.10;;
81952;SDS011;71454;55.476;14.282;2023-07-31T12:11:45;10.63;;;3.20;;
81952;SDS011;71454;55.476;14.282;2023-07-31T12:14:20;6.40;;;2.67;;
81952;SDS011;71454;55.476;14.282;2023-07-31T12:16:56;11.40;;;3.10;;
81952;SDS011;71454;55.476;14.282;2023-07-31T12:19:27;7.63;;;2.83;;
81952;SDS011;71454;55.476;14.282;2023-07-31T12:21:54;6.40;;;2.92;;
81952;SDS011;71454;55.476;14.282;2023-07-31T12:24:23;6.63;;;2.78;;
81952;SDS011;71454;55.476;14.282;2023-07-31T12:26:49;11.38;;;3.05;;
81952;SDS011;71454;55.476;14.282;2023-07-31T12:29:14;8.27;;;2.85;;
81952;SDS011;71454;55.476;14.282;2023-07-31T12:31:43;5.80;;;2.40;;
81952;SDS011;71454;55.476;14.282;2023-07-31T12:34:18;8.38;;;2.70;;
81952;SDS011;71454;55.476;14.282;2023-07-31T12:36:45;8.68;;;2.70;;
81952;SDS011;71454;55.476;14.282;2023-07-31T12:39:12;7.68;;;2.35;;
81952;SDS011;71454;55.476;14.282;2023-07-31T12:41:37;6.10;;;1.80;;
81952;SDS011;71454;55.476;14.282;2023-07-31T12:44:03;10.35;;;2.35;;
81952;SDS011;71454;55.476;14.282;2023-07-31T12:46:29;8.88;;;2.15;;
81952;SDS011;71454;55.476;14.282;2023-07-31T12:48:54;9.15;;;2.47;;
81952;SDS011;71454;55.476;14.282;2023-07-31T12:51:20;10.00;;;2.20;;
81952;SDS011;71454;55.476;14.282;2023-07-31T12:53:46;6.72;;;1.83;;
81952;SDS011;71454;55.476;14.282;2023-07-31T12:56:11;7.57;;;2.00;;
81952;SDS011;71454;55.476;14.282;2023-07-31T12:58:36;8.07;;;2.47;;
81952;SDS011;71454;55.476;14.282;2023-07-31T13:01:02;5.80;;;1.92;;
81952;SDS011;71454;55.476;14.282;2023-07-31T13:03:27;6.43;;;1.95;;
81952;SDS011;71454;55.476;14.282;2023-07-31T13:05:53;11.65;;;2.17;;
81952;SDS011;71454;55.476;14.282;2023-07-31T13:08:19;7.00;;;1.83;;
81952;SDS011;71454;55.476;14.282;2023-07-31T13:10:44;8.10;;;1.90;;
81952;SDS011;71454;55.476;14.282;2023-07-31T13:13:09;8.20;;;2.33;;
81952;SDS011;71454;55.476;14.282;2023-07-31T13:15:35;9.10;;;1.98;;
81952;SDS011;71454;55.476;14.282;2023-07-31T13:18:00;6.68;;;1.70;;
81952;SDS011;71454;55.476;14.282;2023-07-31T13:20:26;5.75;;;1.55;;
81952;SDS011;71454;55.476;14.282;2023-07-31T13:22:51;3.78;;;1.33;;
81952;SDS011;71454;55.476;14.282;2023-07-31T13:25:17;6.03;;;1.58;;
81952;SDS011;71454;55.476;14.282;2023-07-31T13:27:42;7.32;;;1.65;;
81952;SDS011;71454;55.476;14.282;2023-07-31T13:30:08;5.22;;;2.03;;
81952;SDS011;71454;55.476;14.282;2023-07-31T13:32:33;5.07;;;1.42;;
81952;SDS011;71454;55.476;14.282;2023-07-31T13:35:03;5.25;;;1.40;;
81952;SDS011;71454;55.476;14.282;2023-07-31T13:37:30;4.00;;;1.40;;
81952;SDS011;71454;55.476;14.282;2023-07-31T13:39:55;9.02;;;1.50;;
81952;SDS011;71454;55.476;14.282;2023-07-31T13:42:21;6.22;;;1.60;;
81952;SDS011;71454;55.476;14.282;2023-07-31T13:44:47;6.38;;;1.63;;
81952;SDS011;71454;55.476;14.282;2023-07-31T13:47:12;6.43;;;1.80;;
81952;SDS011;71454;55.476;14.282;2023-07-31T13:49:37;4.55;;;1.40;;
81952;SDS011;71454;55.476;14.282;2023-07-31T13:52:04;4.68;;;1.27;;
81952;SDS011;71454;55.476;14.282;2023-07-31T13:54:29;5.22;;;1.40;;
81952;SDS011;71454;55.476;14.282;2023-07-31T13:56:55;3.97;;;1.27;;
81952;SDS011;71454;55.476;14.282;2023-07-31T13:59:20;3.95;;;1.30;;
81952;SDS011;71454;55.476;14.282;2023-07-31T14:01:45;3.63;;;1.08;;
81952;SDS011;71454;55.476;14.282;2023-07-31T14:04:11;4.40;;;1.33;;
81952;SDS011;71454;55.476;14.282;2023-07-31T14:06:37;5.07;;;1.67;;
81952;SDS011;71454;55.476;14.282;2023-07-31T14:09:02;4.90;;;1.40;;
81952;SDS011;71454;55.476;14.282;2023-07-31T14:11:28;5.32;;;1.40;;
81952;SDS011;71454;55.476;14.282;2023-07-31T14:13:55;5.10;;;1.52;;
81952;SDS011;71454;55.476;14.282;2023-07-31T14:16:21;4.63;;;1.40;;
81952;SDS011;71454;55.476;14.282;2023-07-31T14:18:47;5.72;;;1.58;;
81952;SDS011;71454;55.476;14.282;2023-07-31T14:21:12;5.68;;;1.42;;
81952;SDS011;71454;55.476;14.282;2023-07-31T14:23:38;4.75;;;1.50;;
81952;SDS011;71454;55.476;14.282;2023-07-31T14:26:03;5.05;;;1.52;;
81952;SDS011;71454;55.476;14.282;2023-07-31T14:28:28;5.95;;;1.38;;
81952;SDS011;71454;55.476;14.282;2023-07-31T14:30:54;6.35;;;1.67;;
81952;SDS011;71454;55.476;14.282;2023-07-31T14:33:20;6.03;;;1.75;;
81952;SDS011;71454;55.476;14.282;2023-07-31T14:35:45;5.93;;;1.67;;
81952;SDS011;71454;55.476;14.282;2023-07-31T14:38:11;3.95;;;1.23;;
81952;SDS011;71454;55.476;14.282;2023-07-31T14:40:36;6.82;;;1.50;;
81952;SDS011;71454;55.476;14.282;2023-07-31T14:43:03;5.13;;;1.33;;